Terminal Aerodrome Forecast
Issued by NWS

Home | Current Version | Previous Version | Text Only | Print | Product List | Glossary Off
Versions: 1 2 3 4 5 6 7 8 9 10 11 12 13 14

000
FTUS43 KBIS 202330
TAFMOT
TAF
KMOT 202330Z 2100/2124 32018G24KT P6SM SKC
     FM210200 32014KT P6SM SKC
     FM210600 34008KT P6SM SCT250
     FM211400 02007KT P6SM SCT120
     FM211800 06006KT P6SM SCT090
     FM212200 09010KT P6SM SCT080=

USA.gov is the U.S. government's official web portal to all federal, state and local government web resources and services.